createdAt,value
2017-06-24T00:02:16.950Z,97.80
2017-06-24T00:04:44.443Z,97.90
2017-06-24T00:07:11.937Z,98.20
2017-06-24T00:09:39.419Z,98.10
2017-06-24T00:12:06.929Z,98.10
2017-06-24T00:14:34.806Z,97.90
2017-06-24T00:17:02.299Z,98.00
2017-06-24T00:19:30.080Z,97.80
2017-06-24T00:21:57.565Z,97.80
2017-06-24T00:24:25.440Z,97.70
2017-06-24T00:26:53.443Z,97.70
2017-06-24T00:29:20.924Z,97.90
2017-06-24T00:31:48.407Z,97.90
2017-06-24T00:34:16.267Z,97.70
2017-06-24T00:36:44.144Z,98.00
2017-06-24T00:39:11.647Z,98.00
2017-06-24T00:41:39.452Z,97.90
2017-06-24T00:44:07.328Z,98.00
2017-06-24T00:46:34.827Z,98.00
2017-06-24T00:49:02.435Z,98.00
2017-06-24T00:51:29.923Z,97.60
2017-06-24T00:53:57.399Z,97.80
2017-06-24T00:56:24.907Z,97.90
2017-06-24T00:58:52.788Z,97.80
2017-06-24T01:01:20.268Z,97.80
2017-06-24T01:03:48.084Z,97.50
2017-06-24T01:06:15.583Z,97.70
2017-06-24T01:08:43.064Z,97.80
2017-06-24T01:11:10.715Z,97.70
2017-06-24T01:13:38.210Z,97.60
2017-06-24T01:16:06.083Z,97.60
2017-06-24T01:18:33.995Z,97.90
2017-06-24T01:21:01.496Z,97.90
2017-06-24T01:23:29.011Z,98.00
2017-06-24T01:25:56.532Z,98.20
2017-06-24T01:28:25.178Z,98.20
2017-06-24T01:30:52.657Z,98.20
2017-06-24T01:33:20.405Z,98.20
2017-06-24T01:35:48.270Z,98.20
2017-06-24T01:38:16.140Z,98.20
2017-06-24T01:40:44.316Z,98.20
2017-06-24T01:43:12.176Z,98.20
2017-06-24T01:45:40.042Z,98.20
2017-06-24T01:48:07.917Z,98.20
2017-06-24T01:50:35.781Z,98.20
2017-06-24T01:53:03.269Z,98.20
2017-06-24T01:55:30.762Z,98.20
2017-06-24T01:57:58.230Z,98.20
2017-06-24T02:00:25.696Z,98.20
2017-06-24T02:02:53.578Z,98.20
2017-06-24T02:05:21.065Z,98.20
2017-06-24T02:07:48.544Z,98.20
2017-06-24T02:10:16.329Z,98.20
2017-06-24T02:12:44.188Z,98.20
2017-06-24T02:15:11.657Z,98.20
2017-06-24T02:17:39.912Z,98.20
2017-06-24T02:20:07.377Z,98.20
2017-06-24T02:22:35.240Z,98.20
2017-06-24T02:25:03.126Z,98.20
2017-06-24T02:27:30.985Z,98.20
2017-06-24T02:29:58.848Z,98.20
2017-06-24T02:32:26.827Z,98.20
2017-06-24T02:34:54.299Z,98.20
2017-06-24T02:37:21.770Z,98.20
2017-06-24T02:39:49.510Z,98.20
2017-06-24T02:42:16.984Z,98.20
2017-06-24T02:44:44.452Z,98.20
2017-06-24T02:47:11.949Z,98.20
2017-06-24T02:49:39.812Z,98.20
2017-06-24T02:52:07.677Z,98.20
2017-06-24T02:54:35.558Z,98.20
2017-06-24T02:57:03.033Z,98.20
2017-06-24T02:59:30.516Z,98.20
2017-06-24T03:01:58.001Z,98.20
2017-06-24T03:04:25.460Z,98.20
2017-06-24T03:06:53.337Z,98.20
2017-06-24T03:09:21.241Z,98.20
2017-06-24T03:11:48.705Z,98.20
2017-06-24T03:14:16.194Z,98.20
2017-06-24T03:16:43.696Z,98.20
2017-06-24T03:19:11.163Z,98.20
2017-06-24T03:21:38.636Z,98.20
2017-06-24T03:24:06.324Z,98.20
2017-06-24T03:26:34.203Z,98.20
2017-06-24T03:29:01.680Z,98.20
2017-06-24T03:31:29.270Z,98.20
2017-06-24T03:33:56.736Z,98.20
2017-06-24T03:36:24.206Z,98.20
2017-06-24T03:38:51.876Z,98.20
2017-06-24T03:41:19.342Z,98.20
2017-06-24T03:43:47.205Z,98.20
2017-06-24T03:46:15.098Z,98.20
2017-06-24T03:48:42.564Z,98.20
2017-06-24T03:51:10.033Z,98.20
2017-06-24T03:53:37.775Z,98.20
2017-06-24T03:56:05.257Z,98.20
2017-06-24T03:58:32.721Z,98.20
2017-06-24T04:01:00.406Z,98.20
2017-06-24T04:03:28.268Z,98.20
2017-06-24T04:05:56.134Z,98.20
2017-06-24T04:08:23.627Z,98.20
2017-06-24T04:10:51.088Z,98.20
2017-06-24T04:13:18.553Z,98.20
2017-06-24T04:15:46.033Z,98.20
2017-06-24T04:18:13.508Z,98.20
2017-06-24T04:20:40.976Z,98.20
2017-06-24T04:23:08.882Z,98.20
2017-06-24T04:25:36.354Z,98.20
2017-06-24T04:28:03.818Z,98.20
2017-06-24T04:30:31.350Z,98.20
2017-06-24T04:32:58.807Z,98.20
2017-06-24T04:35:26.272Z,98.20
2017-06-24T04:37:53.774Z,98.20
2017-06-24T04:40:21.269Z,98.20
2017-06-24T04:42:48.927Z,98.20
2017-06-24T04:45:16.740Z,98.20
2017-06-24T04:47:44.613Z,98.20
2017-06-24T04:50:12.493Z,98.20
2017-06-24T04:52:40.390Z,98.20
2017-06-24T04:55:07.855Z,98.20
2017-06-24T04:57:35.325Z,98.20
2017-06-24T05:00:02.825Z,98.20
2017-06-24T05:02:31.024Z,98.20
2017-06-24T05:04:58.488Z,98.20
2017-06-24T05:07:27.121Z,98.20
2017-06-24T05:09:54.593Z,98.20
2017-06-24T05:12:22.462Z,98.20
2017-06-24T05:14:49.974Z,98.20
2017-06-24T05:17:17.436Z,98.20
2017-06-24T05:19:44.906Z,98.20
2017-06-24T05:22:13.078Z,98.20
2017-06-24T05:24:40.545Z,98.20
2017-06-24T05:27:08.404Z,98.20
2017-06-24T05:29:36.622Z,98.20
2017-06-24T05:32:04.080Z,98.20
2017-06-24T05:34:31.562Z,98.20
2017-06-24T05:36:59.250Z,98.20
2017-06-24T05:39:27.114Z,98.20
2017-06-24T05:41:54.977Z,98.20
2017-06-24T05:44:22.880Z,98.20
2017-06-24T05:46:50.358Z,98.20
2017-06-24T05:49:17.829Z,98.20
2017-06-24T05:51:45.334Z,98.20
2017-06-24T05:54:12.797Z,98.20
2017-06-24T05:56:40.269Z,98.20
2017-06-24T05:59:08.744Z,98.20
2017-06-24T06:01:37.150Z,98.20
2017-06-24T06:04:04.625Z,98.20
2017-06-24T06:06:32.108Z,98.20
2017-06-24T06:08:59.582Z,98.20
2017-06-24T06:11:27.057Z,98.20
2017-06-24T06:13:54.561Z,98.20
2017-06-24T06:16:22.426Z,98.20
2017-06-24T06:18:49.912Z,98.20
2017-06-24T06:21:17.732Z,98.20
2017-06-24T06:23:45.200Z,98.20
2017-06-24T06:26:12.690Z,98.20
2017-06-24T06:28:40.185Z,98.20
2017-06-24T06:31:08.064Z,98.20
2017-06-24T06:33:35.536Z,98.20
2017-06-24T06:36:03.403Z,98.20
2017-06-24T06:38:31.248Z,98.20
2017-06-24T06:40:58.722Z,98.20
2017-06-24T06:43:26.586Z,98.20
2017-06-24T06:45:54.096Z,98.20
2017-06-24T06:48:21.565Z,98.20
2017-06-24T06:50:49.032Z,98.20
2017-06-24T06:53:17.541Z,98.20
2017-06-24T06:55:45.017Z,98.20
2017-06-24T06:58:12.505Z,98.20
2017-06-24T07:00:40.010Z,98.20
2017-06-24T07:03:07.472Z,98.20
2017-06-24T07:05:34.953Z,98.20
2017-06-24T07:08:02.645Z,98.20
2017-06-24T07:10:30.106Z,98.20
2017-06-24T07:12:57.573Z,98.20
2017-06-24T07:15:25.457Z,98.20
2017-06-24T07:17:52.930Z,98.20
2017-06-24T07:20:20.445Z,98.20
2017-06-24T07:22:48.355Z,98.20
2017-06-24T07:25:15.824Z,98.20
2017-06-24T07:27:43.313Z,98.20
2017-06-24T07:30:10.981Z,98.20
2017-06-24T07:32:38.453Z,98.20
2017-06-24T07:35:06.317Z,98.20
2017-06-24T07:37:34.276Z,98.20
2017-06-24T07:40:02.715Z,98.20
2017-06-24T07:42:30.184Z,98.20
2017-06-24T07:44:58.174Z,98.20
2017-06-24T07:47:26.040Z,98.20
2017-06-24T07:49:53.913Z,98.20
2017-06-24T07:52:21.410Z,98.20
2017-06-24T07:54:49.996Z,98.20
2017-06-24T07:57:17.464Z,98.20
2017-06-24T07:59:44.973Z,98.20
2017-06-24T08:02:12.447Z,98.20
2017-06-24T08:04:40.470Z,98.20
2017-06-24T08:07:08.229Z,98.20
2017-06-24T08:09:36.109Z,98.20
2017-06-24T08:12:03.972Z,98.20
2017-06-24T08:14:31.848Z,98.20
2017-06-24T08:16:59.324Z,98.20
2017-06-24T08:19:26.796Z,98.20
2017-06-24T08:21:54.294Z,98.20
2017-06-24T08:24:21.761Z,98.20
2017-06-24T08:26:50.601Z,98.20
2017-06-24T08:29:18.241Z,98.20
2017-06-24T08:31:45.740Z,98.20
2017-06-24T08:34:13.227Z,98.20
2017-06-24T08:36:41.121Z,98.20
2017-06-24T08:39:08.589Z,98.20
2017-06-24T08:41:36.053Z,98.20
2017-06-24T08:44:03.801Z,98.20
2017-06-24T08:46:31.268Z,98.20
2017-06-24T08:48:58.742Z,98.20
2017-06-24T08:51:26.332Z,98.20
2017-06-24T08:53:53.816Z,98.20
2017-06-24T08:56:21.300Z,98.20
2017-06-24T08:58:48.877Z,98.20
2017-06-24T09:01:16.349Z,98.20
2017-06-24T09:03:44.227Z,98.20
2017-06-24T09:06:11.736Z,98.20
2017-06-24T09:08:39.220Z,98.20
2017-06-24T09:11:07.126Z,98.20
2017-06-24T09:13:34.949Z,98.20
2017-06-24T09:16:02.817Z,98.20
2017-06-24T09:18:30.282Z,98.20
2017-06-24T09:20:58.177Z,98.20
2017-06-24T09:23:25.649Z,98.20
2017-06-24T09:25:53.123Z,98.20
2017-06-24T09:28:20.818Z,98.20
2017-06-24T09:30:48.681Z,98.20
2017-06-24T09:33:16.548Z,98.20
2017-06-24T09:35:44.066Z,98.20
2017-06-24T09:38:11.544Z,98.20
2017-06-24T09:40:39.424Z,98.20
2017-06-24T09:43:07.580Z,98.20
2017-06-24T09:45:35.448Z,98.20
2017-06-24T09:48:03.312Z,98.20
2017-06-24T09:50:31.224Z,98.20
2017-06-24T09:52:58.717Z,98.20
2017-06-24T09:55:26.196Z,98.20
2017-06-24T09:57:54.190Z,98.20
2017-06-24T10:00:21.718Z,98.20
2017-06-24T10:02:49.202Z,98.20
2017-06-24T10:05:16.742Z,98.20
2017-06-24T10:07:44.246Z,98.20
2017-06-24T10:10:11.721Z,98.20
2017-06-24T10:12:39.501Z,98.20
2017-06-24T10:15:08.185Z,98.20
2017-06-24T10:17:36.062Z,98.20
2017-06-24T10:20:04.130Z,98.20
2017-06-24T10:22:32.002Z,98.20
2017-06-24T10:25:00.125Z,98.20
2017-06-24T10:27:27.657Z,98.20
2017-06-24T10:29:55.167Z,98.20
2017-06-24T10:32:23.053Z,98.20
2017-06-24T10:34:51.121Z,98.20
2017-06-24T10:37:19.007Z,98.20
2017-06-24T10:39:46.502Z,98.20
2017-06-24T10:42:14.038Z,98.20
2017-06-24T10:44:41.516Z,98.20
2017-06-24T10:47:08.998Z,98.20
2017-06-24T10:49:37.427Z,98.20
2017-06-24T10:52:04.933Z,98.20
2017-06-24T10:54:32.840Z,98.20
2017-06-24T10:57:00.371Z,98.20
2017-06-24T10:59:28.237Z,98.20
2017-06-24T11:01:55.720Z,98.20
2017-06-24T11:04:23.484Z,98.20
2017-06-24T11:06:50.966Z,98.20
2017-06-24T11:09:18.470Z,98.20
2017-06-24T11:11:48.008Z,98.20
2017-06-24T11:14:16.037Z,98.20
2017-06-24T11:16:43.534Z,98.20
2017-06-24T11:19:11.048Z,98.20
2017-06-24T11:21:38.618Z,98.20
2017-06-24T11:24:06.095Z,98.20
2017-06-24T11:26:34.473Z,98.20
2017-06-24T11:29:01.989Z,98.20
2017-06-24T11:31:29.465Z,98.20
2017-06-24T11:33:56.975Z,98.20
2017-06-24T11:36:24.580Z,98.20
2017-06-24T11:38:52.138Z,98.20
2017-06-24T11:41:19.620Z,98.00
2017-06-24T11:43:47.134Z,97.90
2017-06-24T11:46:14.657Z,97.20
2017-06-24T11:48:42.133Z,97.40
2017-06-24T11:51:10.770Z,97.10
2017-06-24T11:53:38.308Z,97.40
2017-06-24T11:56:05.796Z,97.50
2017-06-24T11:58:33.280Z,97.00
2017-06-24T12:12:26.349Z,97.10
2017-06-24T12:14:53.822Z,98.20
2017-06-24T12:17:21.309Z,98.20
2017-06-24T12:19:49.205Z,98.20
2017-06-24T12:22:16.750Z,98.20
2017-06-24T12:24:44.906Z,98.20
2017-06-24T12:27:12.394Z,98.20
2017-06-24T12:29:39.861Z,98.20
2017-06-24T12:32:07.672Z,98.20
2017-06-24T12:34:35.632Z,98.20
2017-06-24T12:37:03.104Z,98.20
2017-06-24T12:39:31.069Z,98.20
2017-06-24T12:41:58.543Z,98.20
2017-06-24T12:44:26.410Z,98.20
2017-06-24T12:46:54.592Z,98.20
2017-06-24T12:49:22.066Z,98.20
2017-06-24T12:51:49.552Z,98.20
2017-06-24T12:54:17.163Z,98.20
2017-06-24T12:56:44.636Z,98.20
2017-06-24T12:59:12.341Z,98.20
2017-06-24T13:01:40.268Z,98.20
2017-06-24T13:04:07.769Z,98.20
2017-06-24T13:06:35.652Z,98.20
2017-06-24T13:09:03.550Z,98.20
2017-06-24T13:11:31.053Z,98.20
2017-06-24T13:13:58.543Z,98.20
2017-06-24T13:16:26.079Z,98.20
2017-06-24T13:18:53.950Z,98.20
2017-06-24T13:21:21.759Z,98.20
2017-06-24T13:23:49.264Z,98.20
2017-06-24T13:26:17.397Z,98.20
2017-06-24T13:28:45.711Z,98.20
2017-06-24T13:31:13.221Z,98.20
2017-06-24T13:33:40.714Z,98.20
2017-06-24T13:36:08.192Z,98.20
2017-06-24T13:38:35.975Z,98.20
2017-06-24T13:41:03.459Z,98.20
2017-06-24T13:43:30.957Z,98.20
2017-06-24T13:45:58.584Z,98.20
2017-06-24T13:48:26.064Z,98.20
2017-06-24T13:50:53.937Z,98.20
2017-06-24T13:53:21.458Z,98.20
2017-06-24T13:55:48.964Z,98.20
2017-06-24T13:58:16.458Z,98.20
2017-06-24T14:00:44.144Z,98.20
2017-06-24T14:03:12.016Z,98.20
2017-06-24T14:05:39.481Z,98.20
2017-06-24T14:08:07.264Z,98.20
2017-06-24T14:10:34.740Z,98.20
2017-06-24T14:13:02.235Z,98.20
2017-06-24T14:15:30.036Z,98.20
2017-06-24T14:17:57.524Z,98.20
2017-06-24T14:20:24.996Z,98.20
2017-06-24T14:22:52.499Z,98.20
2017-06-24T14:25:19.962Z,98.20
2017-06-24T14:27:47.464Z,98.20
2017-06-24T14:30:15.148Z,98.20
2017-06-24T14:32:42.620Z,98.20
2017-06-24T14:35:10.111Z,98.20
2017-06-24T14:37:37.615Z,97.60
2017-06-24T14:40:05.089Z,97.20
2017-06-24T14:42:32.572Z,96.30
2017-06-24T14:45:00.397Z,96.40
2017-06-24T14:47:27.882Z,94.70
2017-06-24T14:49:55.345Z,94.90
2017-06-24T14:52:23.264Z,93.70
2017-06-24T14:54:50.851Z,93.40
2017-06-24T14:57:18.339Z,93.00
2017-06-24T14:59:46.131Z,93.90
2017-06-24T15:02:13.611Z,93.20
2017-06-24T15:04:41.088Z,93.90
2017-06-24T15:07:08.728Z,93.10
2017-06-24T15:09:36.228Z,92.30
2017-06-24T15:12:03.725Z,93.00
2017-06-24T15:14:31.310Z,91.90
2017-06-24T15:16:58.789Z,92.20
2017-06-24T15:19:26.285Z,92.30
2017-06-24T15:21:54.292Z,92.10
2017-06-24T15:24:22.112Z,91.80
2017-06-24T15:26:49.597Z,91.70
2017-06-24T15:29:17.406Z,91.40
2017-06-24T15:31:44.882Z,91.80
2017-06-24T15:34:12.370Z,91.30
2017-06-24T15:36:40.149Z,91.40
2017-06-24T15:39:07.642Z,91.20
2017-06-24T15:41:35.122Z,90.30
2017-06-24T15:44:02.732Z,91.20
2017-06-24T15:46:30.200Z,91.30
2017-06-24T15:48:57.673Z,90.80
2017-06-24T15:51:26.309Z,89.70
2017-06-24T15:53:53.773Z,89.60
2017-06-24T15:56:21.249Z,88.20
2017-06-24T15:58:48.968Z,88.60
2017-06-24T16:01:16.471Z,88.50
2017-06-24T16:03:43.945Z,88.10
2017-06-24T16:06:12.377Z,87.00
2017-06-24T16:08:39.857Z,87.50
2017-06-24T16:11:07.337Z,88.10
2017-06-24T16:13:35.037Z,88.00
2017-06-24T16:16:02.544Z,87.20
2017-06-24T16:18:30.045Z,87.20
2017-06-24T16:21:01.891Z,88.90
2017-06-24T16:23:30.270Z,89.40
2017-06-24T16:25:57.857Z,90.20
2017-06-24T16:28:25.348Z,89.30
2017-06-24T16:30:52.840Z,88.90
2017-06-24T16:33:20.619Z,89.60
2017-06-24T16:35:48.109Z,89.50
2017-06-24T16:38:16.580Z,89.00
2017-06-24T16:40:44.730Z,89.30
2017-06-24T16:43:12.581Z,88.60
2017-06-24T16:45:40.380Z,88.80
2017-06-24T16:48:07.883Z,87.80
2017-06-24T16:50:35.346Z,87.30
2017-06-24T16:53:02.837Z,87.60
2017-06-24T16:55:30.580Z,87.50
2017-06-24T16:57:58.082Z,87.60
2017-06-24T17:00:26.030Z,87.60
2017-06-24T17:02:53.533Z,88.10
2017-06-24T17:05:21.042Z,87.70
2017-06-24T17:07:48.548Z,87.80
2017-06-24T17:10:16.049Z,88.00
2017-06-24T17:12:43.534Z,89.00
2017-06-24T17:15:11.405Z,88.60
2017-06-24T17:17:38.988Z,89.20
2017-06-24T17:20:06.469Z,88.90
2017-06-24T17:22:33.943Z,88.70
2017-06-24T17:25:01.693Z,88.30
2017-06-24T17:27:29.163Z,89.20
2017-06-24T17:29:57.233Z,89.90
2017-06-24T17:32:26.085Z,88.80
2017-06-24T17:34:53.575Z,88.70
2017-06-24T17:37:21.942Z,88.90
2017-06-24T17:39:50.611Z,89.80
2017-06-24T17:42:18.081Z,89.90
2017-06-24T17:44:45.854Z,89.90
2017-06-24T17:47:14.229Z,89.90
2017-06-24T17:49:43.469Z,90.00
2017-06-24T17:52:10.966Z,90.10
2017-06-24T17:54:38.500Z,89.80
2017-06-24T17:57:06.359Z,89.70
2017-06-24T17:59:34.820Z,89.70
2017-06-24T18:02:02.527Z,89.10
2017-06-24T18:04:30.053Z,89.10
2017-06-24T18:06:57.537Z,89.60
2017-06-24T18:09:25.645Z,88.70
2017-06-24T18:11:53.900Z,89.00
2017-06-24T18:14:21.386Z,89.70
2017-06-24T18:16:48.877Z,89.00
2017-06-24T18:19:16.744Z,88.90
2017-06-24T18:21:45.126Z,88.80
2017-06-24T18:24:12.904Z,88.80
2017-06-24T18:26:41.036Z,88.80
2017-06-24T18:29:09.018Z,88.90
2017-06-24T18:31:37.019Z,88.40
2017-06-24T18:34:04.517Z,88.40
2017-06-24T18:36:31.996Z,88.30
2017-06-24T18:38:59.873Z,88.70
2017-06-24T18:41:28.242Z,88.70
2017-06-24T18:43:55.759Z,88.70
2017-06-24T18:46:24.427Z,89.00
2017-06-24T18:48:51.894Z,89.20
2017-06-24T18:51:19.991Z,89.20
2017-06-24T18:53:47.811Z,89.40
2017-06-24T18:56:16.197Z,89.50
2017-06-24T18:58:44.291Z,89.90
2017-06-24T19:01:12.077Z,89.90
2017-06-24T19:03:39.975Z,90.40
2017-06-24T19:06:07.470Z,90.40
2017-06-24T19:08:35.852Z,90.40
2017-06-24T19:11:03.336Z,90.40
2017-06-24T19:13:31.448Z,90.80
2017-06-24T19:15:59.298Z,90.80
2017-06-24T19:18:27.903Z,90.90
2017-06-24T19:20:55.413Z,90.70
2017-06-24T19:23:23.579Z,91.00
2017-06-24T19:25:51.080Z,91.00
2017-06-24T19:28:18.981Z,90.90
2017-06-24T19:30:47.191Z,90.70
2017-06-24T19:33:15.656Z,90.70
2017-06-24T19:35:43.395Z,91.30
2017-06-24T19:38:12.402Z,91.70
2017-06-24T19:40:39.965Z,91.80
2017-06-24T19:43:08.344Z,91.80
2017-06-24T19:45:37.616Z,91.80
2017-06-24T19:48:05.098Z,91.60
2017-06-24T19:50:33.614Z,90.90
2017-06-24T19:53:01.411Z,90.90
2017-06-24T19:55:29.321Z,91.30
2017-06-24T19:57:56.780Z,91.30
2017-06-24T20:00:24.285Z,90.60
2017-06-24T20:02:51.787Z,91.40
2017-06-24T20:05:19.270Z,91.10
2017-06-24T20:10:21.339Z,91.00
2017-06-24T20:12:49.796Z,91.10
2017-06-24T20:15:17.305Z,90.90
2017-06-24T20:17:45.510Z,91.00
2017-06-24T20:20:13.434Z,90.30
2017-06-24T20:22:41.232Z,90.20
2017-06-24T20:25:09.128Z,90.80
2017-06-24T20:27:36.904Z,90.80
2017-06-24T20:30:04.408Z,90.50
2017-06-24T20:32:32.297Z,90.50
2017-06-24T20:35:00.064Z,90.50
2017-06-24T20:37:27.530Z,90.70
2017-06-24T20:39:55.058Z,90.40
2017-06-24T20:42:22.941Z,91.80
2017-06-24T20:44:50.401Z,91.80
2017-06-24T20:47:17.890Z,91.30
2017-06-24T20:49:45.391Z,91.80
2017-06-24T20:52:13.278Z,91.50
2017-06-24T20:54:40.781Z,91.50
2017-06-24T20:57:08.289Z,91.80
2017-06-24T20:59:35.763Z,91.80
2017-06-24T21:02:03.243Z,92.10
2017-06-24T21:04:30.996Z,92.40
2017-06-24T21:06:58.763Z,92.40
2017-06-24T21:09:26.224Z,92.60
2017-06-24T21:11:53.927Z,92.40
2017-06-24T21:14:21.896Z,92.50
2017-06-24T21:16:49.409Z,92.50
2017-06-24T21:19:17.107Z,92.50
2017-06-24T21:21:46.306Z,92.40
2017-06-24T21:24:14.171Z,92.70
2017-06-24T21:26:42.343Z,92.90
2017-06-24T21:29:10.836Z,92.70
2017-06-24T21:31:38.311Z,92.70
2017-06-24T21:34:05.823Z,93.00
2017-06-24T21:36:33.304Z,93.00
2017-06-24T21:39:01.093Z,93.20
2017-06-24T21:41:28.800Z,93.10
2017-06-24T21:43:56.281Z,93.30
2017-06-24T21:46:23.740Z,93.20
2017-06-24T21:48:51.236Z,93.50
2017-06-24T21:51:18.692Z,93.60
2017-06-24T21:53:47.159Z,93.60
2017-06-24T21:56:14.861Z,93.60
2017-06-24T21:58:42.519Z,93.80
2017-06-24T22:01:10.407Z,93.80
2017-06-24T22:03:38.557Z,93.90
2017-06-24T22:06:06.039Z,94.00
2017-06-24T22:08:33.898Z,93.90
2017-06-24T22:11:01.559Z,93.90
2017-06-24T22:13:29.012Z,94.10
2017-06-24T22:15:56.552Z,93.80
2017-06-24T22:18:24.691Z,94.00
2017-06-24T22:20:52.146Z,94.00
2017-06-24T22:23:19.597Z,94.20
2017-06-24T22:25:47.273Z,94.30
2017-06-24T22:28:14.726Z,94.40
2017-06-24T22:30:42.171Z,94.40
2017-06-24T22:33:09.634Z,94.40
2017-06-24T22:35:37.084Z,94.30
2017-06-24T22:38:04.519Z,94.30
2017-06-24T22:40:32.296Z,94.30
2017-06-24T22:42:59.736Z,94.40
2017-06-24T22:45:27.171Z,94.50
2017-06-24T22:47:54.640Z,94.60
2017-06-24T22:50:22.092Z,94.60
2017-06-24T22:52:49.531Z,94.60
2017-06-24T22:55:17.000Z,94.70
2017-06-24T22:57:44.442Z,94.70
2017-06-24T23:00:11.882Z,94.70
2017-06-24T23:02:39.732Z,94.70
2017-06-24T23:05:07.569Z,94.80
2017-06-24T23:07:35.013Z,94.80
2017-06-24T23:10:02.483Z,94.90
2017-06-24T23:12:29.923Z,94.90
2017-06-24T23:14:57.363Z,94.80
2017-06-24T23:17:25.145Z,94.90
2017-06-24T23:19:53.455Z,94.80
2017-06-24T23:22:21.295Z,94.50
2017-06-24T23:24:48.768Z,94.50
2017-06-24T23:27:16.210Z,94.20
2017-06-24T23:29:43.647Z,94.50
2017-06-24T23:32:11.106Z,94.20
2017-06-24T23:34:38.575Z,94.00
2017-06-24T23:37:06.025Z,93.90
2017-06-24T23:39:33.467Z,93.90
2017-06-24T23:42:00.911Z,93.70
2017-06-24T23:44:28.355Z,93.80
2017-06-24T23:46:56.138Z,93.90
2017-06-24T23:49:23.582Z,94.50
2017-06-24T23:51:51.019Z,94.90
2017-06-24T23:54:18.811Z,95.10
2017-06-24T23:56:46.260Z,94.50
2017-06-24T23:59:13.699Z,94.70
